Pagrindinis puslapis
METAR-TAF:

METAR-TAF

Oro uostai :

Sinop, Turkija

platuma: 42-00-57N, ilguma: 035-03-59E, Aukštis: 7 m

Dabartinis oras

Ataskaita buvo paskelbta 11 valandos ir 6 minutes, ne 16:50 UTC
Vėjas 4 kt iš Šiaurės Vakarų, svyruoja nuo Vakarų ir Šiaurės/Šiaurės Vakarų
Temperatūra 24°C
Drėgmė 69%
Slėgis 1017 hPa
Matomumas 10 km arba daugiau
Mažai debesys ne aukštis 2500 ft

METAR: LTCM 101650Z 31004KT 280V340 9999 FEW025 24/18 Q1017

Laikas: 06:56 (03:56 UTC)

Prognozė

Ataskaita buvo paskelbta 2 valandos ir 16 minutes, ne 01:40 UTC
Prognozė galioja nuo 11 metu 03 UTC su 11 metu 12 UTC
Vėjas 9 kt iš Vakarų/Šiaurės Vakarų
Matomumas 10 km arba daugiau
nėra debesų žemiau 1500 m ir nėra kamuolinių lietaus debesų
Tapsmas
nuo 11 metu 06 UTC su 11 metu 08 UTC
Mažai debesys ne aukštis 3300 ft

TAF: LTCM 110140Z 1103/1112 30009KT CAVOK BECMG 1106/1108 FEW033

Orai ataskaitas ir orų prognozės (METAR, TAF).

turimą stotys yra geltonos ir raudonos taškus žemėlapyje.

Perkelti pele per norėdami pamatyti stoties vardą.

Tada spustelėkite, norėdami matyti oro stebėjimo ir prognozės.

Norėdami pakeisti žemėlapį: spustelėkite ant žalios mygtukų su juodo kryžiaus žemyn,; žalią mygtuką su brūkšneliu, jei norite nutolinti; arba žalių rodyklių gretimoms žemėlapius.


METAR-TAF: